sensor_id;sensor_type;location;lat;lon;timestamp;P1;durP1;ratioP1;P2;durP2;ratioP2
3689;SDS011;1861;50.240;8.596;2023-04-08T00:01:38;9.00;;;4.33;;
3689;SDS011;1861;50.240;8.596;2023-04-08T00:04:06;1.70;;;1.53;;
3689;SDS011;1861;50.240;8.596;2023-04-08T00:06:35;1.10;;;1.00;;
3689;SDS011;1861;50.240;8.596;2023-04-08T00:09:04;1.17;;;1.00;;
3689;SDS011;1861;50.240;8.596;2023-04-08T00:11:32;0.90;;;0.80;;
3689;SDS011;1861;50.240;8.596;2023-04-08T00:14:03;1.23;;;0.90;;
3689;SDS011;1861;50.240;8.596;2023-04-08T00:18:59;1.30;;;1.20;;
3689;SDS011;1861;50.240;8.596;2023-04-08T00:21:27;1.40;;;1.30;;
3689;SDS011;1861;50.240;8.596;2023-04-08T00:23:56;1.40;;;1.20;;
3689;SDS011;1861;50.240;8.596;2023-04-08T00:26:24;1.40;;;1.20;;
3689;SDS011;1861;50.240;8.596;2023-04-08T00:28:52;1.57;;;1.40;;
3689;SDS011;1861;50.240;8.596;2023-04-08T00:31:22;1.40;;;1.30;;
3689;SDS011;1861;50.240;8.596;2023-04-08T00:33:51;1.80;;;1.40;;
3689;SDS011;1861;50.240;8.596;2023-04-08T00:36:19;1.50;;;1.40;;
3689;SDS011;1861;50.240;8.596;2023-04-08T00:38:47;1.50;;;1.40;;
3689;SDS011;1861;50.240;8.596;2023-04-08T00:41:15;1.70;;;1.60;;
3689;SDS011;1861;50.240;8.596;2023-04-08T00:43:43;1.47;;;1.37;;
3689;SDS011;1861;50.240;8.596;2023-04-08T00:46:11;2.67;;;1.50;;
3689;SDS011;1861;50.240;8.596;2023-04-08T00:48:41;1.60;;;1.50;;
3689;SDS011;1861;50.240;8.596;2023-04-08T00:51:09;1.60;;;1.50;;
3689;SDS011;1861;50.240;8.596;2023-04-08T00:53:37;2.63;;;1.57;;
3689;SDS011;1861;50.240;8.596;2023-04-08T00:56:05;1.93;;;1.67;;
3689;SDS011;1861;50.240;8.596;2023-04-08T00:58:33;1.63;;;1.53;;
3689;SDS011;1861;50.240;8.596;2023-04-08T01:01:03;1.57;;;1.43;;
3689;SDS011;1861;50.240;8.596;2023-04-08T01:03:34;1.80;;;1.53;;
3689;SDS011;1861;50.240;8.596;2023-04-08T01:06:15;1.60;;;1.50;;
3689;SDS011;1861;50.240;8.596;2023-04-08T01:08:48;3.07;;;2.10;;
3689;SDS011;1861;50.240;8.596;2023-04-08T01:11:18;2.70;;;1.70;;
3689;SDS011;1861;50.240;8.596;2023-04-08T01:13:47;2.10;;;1.80;;
3689;SDS011;1861;50.240;8.596;2023-04-08T01:16:19;2.90;;;1.97;;
3689;SDS011;1861;50.240;8.596;2023-04-08T01:18:49;2.43;;;1.90;;
3689;SDS011;1861;50.240;8.596;2023-04-08T01:21:19;2.30;;;2.10;;
3689;SDS011;1861;50.240;8.596;2023-04-08T01:23:53;2.87;;;1.90;;
3689;SDS011;1861;50.240;8.596;2023-04-08T01:26:29;2.73;;;2.00;;
3689;SDS011;1861;50.240;8.596;2023-04-08T01:28:58;3.23;;;2.43;;
3689;SDS011;1861;50.240;8.596;2023-04-08T01:31:28;7.63;;;2.20;;
3689;SDS011;1861;50.240;8.596;2023-04-08T01:33:57;3.03;;;2.03;;
3689;SDS011;1861;50.240;8.596;2023-04-08T01:36:28;2.50;;;2.30;;
3689;SDS011;1861;50.240;8.596;2023-04-08T01:38:58;2.50;;;2.20;;
3689;SDS011;1861;50.240;8.596;2023-04-08T01:41:29;3.20;;;2.37;;
3689;SDS011;1861;50.240;8.596;2023-04-08T01:43:59;2.47;;;2.17;;
3689;SDS011;1861;50.240;8.596;2023-04-08T01:46:29;2.63;;;1.90;;
3689;SDS011;1861;50.240;8.596;2023-04-08T01:48:58;2.97;;;2.33;;
3689;SDS011;1861;50.240;8.596;2023-04-08T01:51:27;4.77;;;2.50;;
3689;SDS011;1861;50.240;8.596;2023-04-08T01:53:57;2.90;;;2.53;;
3689;SDS011;1861;50.240;8.596;2023-04-08T01:56:25;3.30;;;2.60;;
3689;SDS011;1861;50.240;8.596;2023-04-08T01:58:59;3.10;;;2.50;;
3689;SDS011;1861;50.240;8.596;2023-04-08T02:01:28;4.27;;;3.00;;
3689;SDS011;1861;50.240;8.596;2023-04-08T02:03:59;3.60;;;2.53;;
3689;SDS011;1861;50.240;8.596;2023-04-08T02:06:28;3.93;;;3.10;;
3689;SDS011;1861;50.240;8.596;2023-04-08T02:08:57;3.10;;;2.80;;
3689;SDS011;1861;50.240;8.596;2023-04-08T02:11:26;5.00;;;3.00;;
3689;SDS011;1861;50.240;8.596;2023-04-08T02:13:56;4.93;;;3.30;;
3689;SDS011;1861;50.240;8.596;2023-04-08T02:16:27;7.07;;;3.70;;
3689;SDS011;1861;50.240;8.596;2023-04-08T02:18:59;3.97;;;2.70;;
3689;SDS011;1861;50.240;8.596;2023-04-08T02:21:41;7.00;;;3.27;;
3689;SDS011;1861;50.240;8.596;2023-04-08T02:24:13;3.90;;;3.23;;
3689;SDS011;1861;50.240;8.596;2023-04-08T02:26:43;4.57;;;3.20;;
3689;SDS011;1861;50.240;8.596;2023-04-08T02:29:15;4.73;;;3.30;;
3689;SDS011;1861;50.240;8.596;2023-04-08T02:31:44;4.97;;;3.53;;
3689;SDS011;1861;50.240;8.596;2023-04-08T02:34:13;7.33;;;3.90;;
3689;SDS011;1861;50.240;8.596;2023-04-08T02:36:42;4.00;;;3.60;;
3689;SDS011;1861;50.240;8.596;2023-04-08T02:39:12;4.97;;;3.13;;
3689;SDS011;1861;50.240;8.596;2023-04-08T02:41:41;5.37;;;3.50;;
3689;SDS011;1861;50.240;8.596;2023-04-08T02:44:09;5.37;;;4.03;;
3689;SDS011;1861;50.240;8.596;2023-04-08T02:46:40;3.33;;;2.87;;
3689;SDS011;1861;50.240;8.596;2023-04-08T02:49:09;5.10;;;3.17;;
3689;SDS011;1861;50.240;8.596;2023-04-08T02:51:37;3.77;;;3.10;;
3689;SDS011;1861;50.240;8.596;2023-04-08T02:54:05;4.20;;;2.90;;
3689;SDS011;1861;50.240;8.596;2023-04-08T02:56:33;4.50;;;3.60;;
3689;SDS011;1861;50.240;8.596;2023-04-08T02:59:01;5.20;;;2.80;;
3689;SDS011;1861;50.240;8.596;2023-04-08T03:01:29;2.83;;;2.53;;
3689;SDS011;1861;50.240;8.596;2023-04-08T03:03:59;5.43;;;2.90;;
3689;SDS011;1861;50.240;8.596;2023-04-08T03:06:27;3.27;;;2.70;;
3689;SDS011;1861;50.240;8.596;2023-04-08T03:08:55;6.97;;;4.20;;
3689;SDS011;1861;50.240;8.596;2023-04-08T03:11:23;4.80;;;3.40;;
3689;SDS011;1861;50.240;8.596;2023-04-08T03:13:51;4.33;;;3.40;;
3689;SDS011;1861;50.240;8.596;2023-04-08T03:16:19;4.60;;;3.10;;
3689;SDS011;1861;50.240;8.596;2023-04-08T03:18:48;6.23;;;4.03;;
3689;SDS011;1861;50.240;8.596;2023-04-08T03:21:18;3.83;;;3.00;;
3689;SDS011;1861;50.240;8.596;2023-04-08T03:23:47;4.87;;;3.97;;
3689;SDS011;1861;50.240;8.596;2023-04-08T03:26:15;5.27;;;3.70;;
3689;SDS011;1861;50.240;8.596;2023-04-08T03:28:43;5.80;;;3.33;;
3689;SDS011;1861;50.240;8.596;2023-04-08T03:31:11;5.57;;;3.77;;
3689;SDS011;1861;50.240;8.596;2023-04-08T03:33:39;4.60;;;3.20;;
3689;SDS011;1861;50.240;8.596;2023-04-08T03:36:07;4.70;;;3.43;;
3689;SDS011;1861;50.240;8.596;2023-04-08T03:38:37;5.40;;;3.73;;
3689;SDS011;1861;50.240;8.596;2023-04-08T03:41:05;4.40;;;3.50;;
3689;SDS011;1861;50.240;8.596;2023-04-08T03:43:33;5.53;;;3.73;;
3689;SDS011;1861;50.240;8.596;2023-04-08T03:46:03;4.57;;;3.40;;
3689;SDS011;1861;50.240;8.596;2023-04-08T03:48:31;5.00;;;3.07;;
3689;SDS011;1861;50.240;8.596;2023-04-08T03:50:59;4.33;;;3.50;;
3689;SDS011;1861;50.240;8.596;2023-04-08T03:53:27;5.93;;;4.03;;
3689;SDS011;1861;50.240;8.596;2023-04-08T03:55:57;5.40;;;3.70;;
3689;SDS011;1861;50.240;8.596;2023-04-08T03:58:26;6.27;;;4.10;;
3689;SDS011;1861;50.240;8.596;2023-04-08T04:00:55;5.00;;;3.97;;
3689;SDS011;1861;50.240;8.596;2023-04-08T04:03:23;6.87;;;4.17;;
3689;SDS011;1861;50.240;8.596;2023-04-08T04:05:51;5.60;;;3.80;;
3689;SDS011;1861;50.240;8.596;2023-04-08T04:08:20;5.20;;;4.10;;
3689;SDS011;1861;50.240;8.596;2023-04-08T04:10:48;5.43;;;4.00;;
3689;SDS011;1861;50.240;8.596;2023-04-08T04:13:18;6.83;;;4.40;;
3689;SDS011;1861;50.240;8.596;2023-04-08T04:15:47;6.13;;;4.27;;
3689;SDS011;1861;50.240;8.596;2023-04-08T04:18:15;6.03;;;4.40;;
3689;SDS011;1861;50.240;8.596;2023-04-08T04:20:43;6.20;;;4.30;;
3689;SDS011;1861;50.240;8.596;2023-04-08T04:23:11;7.83;;;4.70;;
3689;SDS011;1861;50.240;8.596;2023-04-08T04:25:40;8.07;;;4.47;;
3689;SDS011;1861;50.240;8.596;2023-04-08T04:28:08;6.53;;;4.90;;
3689;SDS011;1861;50.240;8.596;2023-04-08T04:30:37;6.50;;;4.57;;
3689;SDS011;1861;50.240;8.596;2023-04-08T04:33:06;7.50;;;4.47;;
3689;SDS011;1861;50.240;8.596;2023-04-08T04:35:34;6.73;;;4.40;;
3689;SDS011;1861;50.240;8.596;2023-04-08T04:38:02;6.53;;;4.60;;
3689;SDS011;1861;50.240;8.596;2023-04-08T04:40:35;6.87;;;4.83;;
3689;SDS011;1861;50.240;8.596;2023-04-08T04:43:04;7.80;;;5.03;;
3689;SDS011;1861;50.240;8.596;2023-04-08T04:45:32;6.47;;;4.43;;
3689;SDS011;1861;50.240;8.596;2023-04-08T04:48:01;7.03;;;4.20;;
3689;SDS011;1861;50.240;8.596;2023-04-08T04:50:29;5.60;;;4.40;;
3689;SDS011;1861;50.240;8.596;2023-04-08T04:52:57;10.27;;;5.40;;
3689;SDS011;1861;50.240;8.596;2023-04-08T04:55:26;10.07;;;5.57;;
3689;SDS011;1861;50.240;8.596;2023-04-08T04:57:54;6.80;;;5.30;;
3689;SDS011;1861;50.240;8.596;2023-04-08T05:00:22;14.03;;;5.97;;
3689;SDS011;1861;50.240;8.596;2023-04-08T05:02:50;8.50;;;5.70;;
3689;SDS011;1861;50.240;8.596;2023-04-08T05:05:19;7.00;;;5.30;;
3689;SDS011;1861;50.240;8.596;2023-04-08T05:07:48;7.30;;;5.60;;
3689;SDS011;1861;50.240;8.596;2023-04-08T05:10:16;9.37;;;5.57;;
3689;SDS011;1861;50.240;8.596;2023-04-08T05:12:44;8.73;;;5.43;;
3689;SDS011;1861;50.240;8.596;2023-04-08T05:15:12;9.37;;;5.77;;
3689;SDS011;1861;50.240;8.596;2023-04-08T05:17:41;7.30;;;5.53;;
3689;SDS011;1861;50.240;8.596;2023-04-08T05:20:09;11.87;;;5.47;;
3689;SDS011;1861;50.240;8.596;2023-04-08T05:22:39;7.40;;;4.97;;
3689;SDS011;1861;50.240;8.596;2023-04-08T05:25:08;9.83;;;5.57;;
3689;SDS011;1861;50.240;8.596;2023-04-08T05:27:36;8.00;;;5.30;;
3689;SDS011;1861;50.240;8.596;2023-04-08T05:30:06;8.60;;;5.37;;
3689;SDS011;1861;50.240;8.596;2023-04-08T05:32:35;7.77;;;5.47;;
3689;SDS011;1861;50.240;8.596;2023-04-08T05:35:03;10.00;;;5.40;;
3689;SDS011;1861;50.240;8.596;2023-04-08T05:37:32;7.07;;;5.23;;
3689;SDS011;1861;50.240;8.596;2023-04-08T05:40:01;6.93;;;4.90;;
3689;SDS011;1861;50.240;8.596;2023-04-08T05:42:30;7.37;;;5.13;;
3689;SDS011;1861;50.240;8.596;2023-04-08T05:44:58;9.10;;;5.30;;
3689;SDS011;1861;50.240;8.596;2023-04-08T05:47:26;7.03;;;5.00;;
3689;SDS011;1861;50.240;8.596;2023-04-08T05:49:54;6.47;;;5.50;;
3689;SDS011;1861;50.240;8.596;2023-04-08T05:52:22;7.00;;;4.47;;
3689;SDS011;1861;50.240;8.596;2023-04-08T05:54:51;9.17;;;5.57;;
3689;SDS011;1861;50.240;8.596;2023-04-08T05:57:20;5.57;;;4.60;;
3689;SDS011;1861;50.240;8.596;2023-04-08T05:59:48;10.57;;;6.03;;
3689;SDS011;1861;50.240;8.596;2023-04-08T06:02:16;7.70;;;5.40;;
3689;SDS011;1861;50.240;8.596;2023-04-08T06:04:45;8.00;;;5.37;;
3689;SDS011;1861;50.240;8.596;2023-04-08T06:07:13;8.70;;;5.63;;
3689;SDS011;1861;50.240;8.596;2023-04-08T06:09:41;9.00;;;5.53;;
3689;SDS011;1861;50.240;8.596;2023-04-08T06:12:10;9.70;;;6.53;;
3689;SDS011;1861;50.240;8.596;2023-04-08T06:14:40;10.80;;;6.03;;
3689;SDS011;1861;50.240;8.596;2023-04-08T06:17:08;9.80;;;6.00;;
3689;SDS011;1861;50.240;8.596;2023-04-08T06:19:36;8.10;;;5.67;;
3689;SDS011;1861;50.240;8.596;2023-04-08T06:22:04;9.27;;;6.20;;
3689;SDS011;1861;50.240;8.596;2023-04-08T06:24:32;10.67;;;6.10;;
3689;SDS011;1861;50.240;8.596;2023-04-08T06:27:00;6.70;;;5.60;;
3689;SDS011;1861;50.240;8.596;2023-04-08T06:29:28;7.27;;;4.83;;
3689;SDS011;1861;50.240;8.596;2023-04-08T06:31:58;8.47;;;5.80;;
3689;SDS011;1861;50.240;8.596;2023-04-08T06:34:26;8.90;;;5.40;;
3689;SDS011;1861;50.240;8.596;2023-04-08T06:36:54;7.43;;;5.37;;
3689;SDS011;1861;50.240;8.596;2023-04-08T06:39:22;6.43;;;5.20;;
3689;SDS011;1861;50.240;8.596;2023-04-08T06:41:50;9.40;;;5.37;;
3689;SDS011;1861;50.240;8.596;2023-04-08T06:44:35;7.57;;;5.70;;
3689;SDS011;1861;50.240;8.596;2023-04-08T06:47:05;6.83;;;5.40;;
3689;SDS011;1861;50.240;8.596;2023-04-08T06:49:33;10.60;;;5.80;;
3689;SDS011;1861;50.240;8.596;2023-04-08T06:52:02;9.87;;;5.50;;
3689;SDS011;1861;50.240;8.596;2023-04-08T06:54:32;8.50;;;5.87;;
3689;SDS011;1861;50.240;8.596;2023-04-08T06:57:00;8.57;;;5.20;;
3689;SDS011;1861;50.240;8.596;2023-04-08T06:59:29;9.40;;;5.90;;
3689;SDS011;1861;50.240;8.596;2023-04-08T07:01:57;7.93;;;5.60;;
3689;SDS011;1861;50.240;8.596;2023-04-08T07:04:27;7.90;;;5.13;;
3689;SDS011;1861;50.240;8.596;2023-04-08T07:06:55;7.13;;;5.40;;
3689;SDS011;1861;50.240;8.596;2023-04-08T07:09:23;9.13;;;5.50;;
3689;SDS011;1861;50.240;8.596;2023-04-08T07:11:51;8.07;;;5.47;;
3689;SDS011;1861;50.240;8.596;2023-04-08T07:14:19;8.40;;;5.20;;
3689;SDS011;1861;50.240;8.596;2023-04-08T07:16:47;9.90;;;5.40;;
3689;SDS011;1861;50.240;8.596;2023-04-08T07:19:15;9.70;;;6.20;;
3689;SDS011;1861;50.240;8.596;2023-04-08T07:21:45;12.03;;;5.87;;
3689;SDS011;1861;50.240;8.596;2023-04-08T07:24:13;7.27;;;5.00;;
3689;SDS011;1861;50.240;8.596;2023-04-08T07:26:41;10.70;;;5.67;;
3689;SDS011;1861;50.240;8.596;2023-04-08T07:29:09;10.17;;;6.20;;
3689;SDS011;1861;50.240;8.596;2023-04-08T07:31:37;8.40;;;5.90;;
3689;SDS011;1861;50.240;8.596;2023-04-08T07:34:05;7.47;;;4.93;;
3689;SDS011;1861;50.240;8.596;2023-04-08T07:36:33;8.53;;;5.63;;
3689;SDS011;1861;50.240;8.596;2023-04-08T07:39:03;7.77;;;5.47;;
3689;SDS011;1861;50.240;8.596;2023-04-08T07:41:31;9.00;;;5.63;;
3689;SDS011;1861;50.240;8.596;2023-04-08T07:43:59;8.30;;;5.27;;
3689;SDS011;1861;50.240;8.596;2023-04-08T07:46:27;8.70;;;5.60;;
3689;SDS011;1861;50.240;8.596;2023-04-08T07:48:57;8.67;;;6.03;;
3689;SDS011;1861;50.240;8.596;2023-04-08T07:51:25;37.80;;;15.60;;
3689;SDS011;1861;50.240;8.596;2023-04-08T07:53:53;10.70;;;5.90;;
3689;SDS011;1861;50.240;8.596;2023-04-08T07:56:22;7.43;;;5.30;;
3689;SDS011;1861;50.240;8.596;2023-04-08T07:58:50;21.23;;;5.83;;
3689;SDS011;1861;50.240;8.596;2023-04-08T08:01:20;8.90;;;5.70;;
3689;SDS011;1861;50.240;8.596;2023-04-08T08:03:50;9.87;;;6.10;;
3689;SDS011;1861;50.240;8.596;2023-04-08T08:06:19;7.80;;;5.70;;
3689;SDS011;1861;50.240;8.596;2023-04-08T08:08:48;8.30;;;5.23;;
3689;SDS011;1861;50.240;8.596;2023-04-08T08:11:16;10.77;;;6.90;;
3689;SDS011;1861;50.240;8.596;2023-04-08T08:13:45;8.53;;;6.00;;
3689;SDS011;1861;50.240;8.596;2023-04-08T08:16:14;12.00;;;6.00;;
3689;SDS011;1861;50.240;8.596;2023-04-08T08:18:42;9.17;;;5.87;;
3689;SDS011;1861;50.240;8.596;2023-04-08T08:21:10;9.73;;;5.77;;
3689;SDS011;1861;50.240;8.596;2023-04-08T08:23:38;9.87;;;5.60;;
3689;SDS011;1861;50.240;8.596;2023-04-08T08:26:07;8.30;;;5.00;;
3689;SDS011;1861;50.240;8.596;2023-04-08T08:28:36;10.00;;;5.80;;
3689;SDS011;1861;50.240;8.596;2023-04-08T08:31:06;8.10;;;5.57;;
3689;SDS011;1861;50.240;8.596;2023-04-08T08:33:34;10.97;;;5.90;;
3689;SDS011;1861;50.240;8.596;2023-04-08T08:36:02;10.83;;;6.83;;
3689;SDS011;1861;50.240;8.596;2023-04-08T08:38:32;10.10;;;6.17;;
3689;SDS011;1861;50.240;8.596;2023-04-08T08:41:00;9.10;;;5.57;;
3689;SDS011;1861;50.240;8.596;2023-04-08T08:43:29;8.70;;;6.33;;
3689;SDS011;1861;50.240;8.596;2023-04-08T08:45:58;12.23;;;7.33;;
3689;SDS011;1861;50.240;8.596;2023-04-08T08:48:28;9.80;;;6.40;;
3689;SDS011;1861;50.240;8.596;2023-04-08T08:50:57;12.60;;;7.07;;
3689;SDS011;1861;50.240;8.596;2023-04-08T08:53:27;11.00;;;6.60;;
3689;SDS011;1861;50.240;8.596;2023-04-08T08:56:01;9.10;;;6.00;;
3689;SDS011;1861;50.240;8.596;2023-04-08T08:58:32;12.30;;;6.40;;
3689;SDS011;1861;50.240;8.596;2023-04-08T09:01:00;10.07;;;6.77;;
3689;SDS011;1861;50.240;8.596;2023-04-08T09:03:30;11.23;;;6.37;;
3689;SDS011;1861;50.240;8.596;2023-04-08T09:05:59;9.60;;;6.77;;
3689;SDS011;1861;50.240;8.596;2023-04-08T09:08:29;8.90;;;5.87;;
3689;SDS011;1861;50.240;8.596;2023-04-08T09:11:09;10.73;;;6.30;;
3689;SDS011;1861;50.240;8.596;2023-04-08T09:13:38;11.03;;;5.97;;
3689;SDS011;1861;50.240;8.596;2023-04-08T09:16:07;9.07;;;5.60;;
3689;SDS011;1861;50.240;8.596;2023-04-08T09:18:38;11.60;;;6.93;;
3689;SDS011;1861;50.240;8.596;2023-04-08T09:21:10;8.10;;;5.50;;
3689;SDS011;1861;50.240;8.596;2023-04-08T09:23:40;10.87;;;5.57;;
3689;SDS011;1861;50.240;8.596;2023-04-08T09:26:09;8.43;;;6.20;;
3689;SDS011;1861;50.240;8.596;2023-04-08T09:28:39;10.70;;;6.90;;
3689;SDS011;1861;50.240;8.596;2023-04-08T09:31:18;9.53;;;6.57;;
3689;SDS011;1861;50.240;8.596;2023-04-08T09:33:49;9.77;;;6.37;;
3689;SDS011;1861;50.240;8.596;2023-04-08T09:36:19;11.47;;;6.97;;
3689;SDS011;1861;50.240;8.596;2023-04-08T09:38:47;10.93;;;6.73;;
3689;SDS011;1861;50.240;8.596;2023-04-08T09:41:17;9.57;;;5.50;;
3689;SDS011;1861;50.240;8.596;2023-04-08T09:43:47;10.20;;;5.70;;
3689;SDS011;1861;50.240;8.596;2023-04-08T09:46:18;12.50;;;6.30;;
3689;SDS011;1861;50.240;8.596;2023-04-08T09:48:57;9.30;;;6.23;;
3689;SDS011;1861;50.240;8.596;2023-04-08T09:51:31;11.00;;;5.73;;
3689;SDS011;1861;50.240;8.596;2023-04-08T09:54:05;11.73;;;6.10;;
3689;SDS011;1861;50.240;8.596;2023-04-08T09:56:40;15.60;;;7.40;;
3689;SDS011;1861;50.240;8.596;2023-04-08T09:59:13;9.53;;;5.30;;
3689;SDS011;1861;50.240;8.596;2023-04-08T10:01:44;7.90;;;4.37;;
3689;SDS011;1861;50.240;8.596;2023-04-08T10:04:20;9.83;;;4.20;;
3689;SDS011;1861;50.240;8.596;2023-04-08T10:06:53;7.70;;;4.57;;
3689;SDS011;1861;50.240;8.596;2023-04-08T10:09:26;12.63;;;5.10;;
3689;SDS011;1861;50.240;8.596;2023-04-08T10:11:54;12.00;;;5.00;;
3689;SDS011;1861;50.240;8.596;2023-04-08T10:14:23;10.60;;;5.03;;
3689;SDS011;1861;50.240;8.596;2023-04-08T10:19:54;9.27;;;3.90;;
3689;SDS011;1861;50.240;8.596;2023-04-08T10:25:27;6.40;;;3.63;;
3689;SDS011;1861;50.240;8.596;2023-04-08T10:27:56;6.57;;;3.60;;
3689;SDS011;1861;50.240;8.596;2023-04-08T10:30:38;7.90;;;4.47;;
3689;SDS011;1861;50.240;8.596;2023-04-08T10:33:08;5.87;;;3.77;;
3689;SDS011;1861;50.240;8.596;2023-04-08T10:35:41;4.73;;;3.57;;
3689;SDS011;1861;50.240;8.596;2023-04-08T10:38:12;5.53;;;4.00;;
3689;SDS011;1861;50.240;8.596;2023-04-08T10:40:41;6.37;;;4.07;;
3689;SDS011;1861;50.240;8.596;2023-04-08T10:43:11;7.70;;;3.83;;
3689;SDS011;1861;50.240;8.596;2023-04-08T10:45:40;5.53;;;3.40;;
3689;SDS011;1861;50.240;8.596;2023-04-08T10:48:12;8.67;;;4.10;;
3689;SDS011;1861;50.240;8.596;2023-04-08T10:50:44;24.73;;;9.37;;
3689;SDS011;1861;50.240;8.596;2023-04-08T10:53:23;8.37;;;3.97;;
3689;SDS011;1861;50.240;8.596;2023-04-08T10:56:01;6.20;;;4.13;;
3689;SDS011;1861;50.240;8.596;2023-04-08T10:58:31;8.70;;;3.90;;
3689;SDS011;1861;50.240;8.596;2023-04-08T11:01:03;8.67;;;4.67;;
3689;SDS011;1861;50.240;8.596;2023-04-08T11:03:33;6.83;;;4.13;;
3689;SDS011;1861;50.240;8.596;2023-04-08T11:06:04;5.60;;;3.70;;
3689;SDS011;1861;50.240;8.596;2023-04-08T11:08:33;4.73;;;3.63;;
3689;SDS011;1861;50.240;8.596;2023-04-08T11:11:03;9.30;;;3.73;;
3689;SDS011;1861;50.240;8.596;2023-04-08T11:13:34;5.90;;;3.57;;
3689;SDS011;1861;50.240;8.596;2023-04-08T11:16:03;6.03;;;3.90;;
3689;SDS011;1861;50.240;8.596;2023-04-08T11:18:43;9.10;;;4.40;;
3689;SDS011;1861;50.240;8.596;2023-04-08T11:21:15;8.50;;;4.47;;
3689;SDS011;1861;50.240;8.596;2023-04-08T11:23:43;5.70;;;4.00;;
3689;SDS011;1861;50.240;8.596;2023-04-08T11:26:11;9.10;;;4.87;;
3689;SDS011;1861;50.240;8.596;2023-04-08T11:28:41;5.87;;;4.00;;
3689;SDS011;1861;50.240;8.596;2023-04-08T11:31:10;7.33;;;4.30;;
3689;SDS011;1861;50.240;8.596;2023-04-08T11:33:43;5.03;;;3.40;;
3689;SDS011;1861;50.240;8.596;2023-04-08T11:36:12;7.10;;;3.70;;
3689;SDS011;1861;50.240;8.596;2023-04-08T11:38:41;5.47;;;3.60;;
3689;SDS011;1861;50.240;8.596;2023-04-08T11:41:10;7.57;;;4.10;;
3689;SDS011;1861;50.240;8.596;2023-04-08T11:43:38;7.70;;;3.30;;
3689;SDS011;1861;50.240;8.596;2023-04-08T11:46:07;8.57;;;3.40;;
3689;SDS011;1861;50.240;8.596;2023-04-08T11:48:37;7.77;;;3.90;;
3689;SDS011;1861;50.240;8.596;2023-04-08T11:51:06;7.20;;;3.43;;
3689;SDS011;1861;50.240;8.596;2023-04-08T11:53:35;5.67;;;4.23;;
3689;SDS011;1861;50.240;8.596;2023-04-08T11:56:17;5.20;;;3.60;;
3689;SDS011;1861;50.240;8.596;2023-04-08T11:58:45;6.30;;;3.30;;
3689;SDS011;1861;50.240;8.596;2023-04-08T12:01:14;7.37;;;3.00;;
3689;SDS011;1861;50.240;8.596;2023-04-08T12:03:56;9.47;;;3.40;;
3689;SDS011;1861;50.240;8.596;2023-04-08T12:06:25;6.13;;;3.20;;
3689;SDS011;1861;50.240;8.596;2023-04-08T12:08:54;4.10;;;3.30;;
3689;SDS011;1861;50.240;8.596;2023-04-08T12:11:24;8.30;;;3.30;;
3689;SDS011;1861;50.240;8.596;2023-04-08T12:13:52;7.90;;;2.80;;
3689;SDS011;1861;50.240;8.596;2023-04-08T12:16:20;8.30;;;3.83;;
3689;SDS011;1861;50.240;8.596;2023-04-08T12:18:49;4.00;;;3.30;;
3689;SDS011;1861;50.240;8.596;2023-04-08T12:21:17;5.87;;;3.30;;
3689;SDS011;1861;50.240;8.596;2023-04-08T12:23:45;5.13;;;3.00;;
3689;SDS011;1861;50.240;8.596;2023-04-08T12:26:13;9.13;;;4.80;;
3689;SDS011;1861;50.240;8.596;2023-04-08T12:28:42;5.50;;;3.07;;
3689;SDS011;1861;50.240;8.596;2023-04-08T12:31:11;5.73;;;3.70;;
3689;SDS011;1861;50.240;8.596;2023-04-08T12:33:39;6.93;;;3.80;;
3689;SDS011;1861;50.240;8.596;2023-04-08T12:36:07;5.30;;;3.60;;
3689;SDS011;1861;50.240;8.596;2023-04-08T12:38:38;9.97;;;5.03;;
3689;SDS011;1861;50.240;8.596;2023-04-08T12:41:06;5.47;;;4.20;;
3689;SDS011;1861;50.240;8.596;2023-04-08T12:43:35;5.90;;;3.60;;
3689;SDS011;1861;50.240;8.596;2023-04-08T12:46:05;7.60;;;3.90;;
3689;SDS011;1861;50.240;8.596;2023-04-08T12:48:33;7.40;;;3.70;;
3689;SDS011;1861;50.240;8.596;2023-04-08T12:51:02;3.57;;;3.10;;
3689;SDS011;1861;50.240;8.596;2023-04-08T12:53:30;5.40;;;3.30;;
3689;SDS011;1861;50.240;8.596;2023-04-08T12:55:58;4.03;;;3.13;;
3689;SDS011;1861;50.240;8.596;2023-04-08T12:58:26;6.70;;;3.80;;
3689;SDS011;1861;50.240;8.596;2023-04-08T13:00:54;5.17;;;3.67;;
3689;SDS011;1861;50.240;8.596;2023-04-08T13:03:24;4.87;;;3.63;;
3689;SDS011;1861;50.240;8.596;2023-04-08T13:05:53;4.57;;;3.40;;
3689;SDS011;1861;50.240;8.596;2023-04-08T13:08:21;3.87;;;3.00;;
3689;SDS011;1861;50.240;8.596;2023-04-08T13:10:50;7.63;;;3.97;;
3689;SDS011;1861;50.240;8.596;2023-04-08T13:13:18;5.33;;;3.23;;
3689;SDS011;1861;50.240;8.596;2023-04-08T13:15:46;5.20;;;3.43;;
3689;SDS011;1861;50.240;8.596;2023-04-08T13:18:14;5.27;;;3.03;;
3689;SDS011;1861;50.240;8.596;2023-04-08T13:20:43;7.70;;;3.70;;
3689;SDS011;1861;50.240;8.596;2023-04-08T13:23:12;5.60;;;3.67;;
3689;SDS011;1861;50.240;8.596;2023-04-08T13:25:43;4.93;;;3.30;;
3689;SDS011;1861;50.240;8.596;2023-04-08T13:28:11;5.83;;;3.33;;
3689;SDS011;1861;50.240;8.596;2023-04-08T13:30:39;8.00;;;3.87;;
3689;SDS011;1861;50.240;8.596;2023-04-08T13:33:07;5.17;;;3.60;;
3689;SDS011;1861;50.240;8.596;2023-04-08T13:35:36;6.37;;;3.93;;
3689;SDS011;1861;50.240;8.596;2023-04-08T13:38:05;6.33;;;3.47;;
3689;SDS011;1861;50.240;8.596;2023-04-08T13:40:33;4.90;;;3.60;;
3689;SDS011;1861;50.240;8.596;2023-04-08T13:43:02;6.90;;;3.90;;
3689;SDS011;1861;50.240;8.596;2023-04-08T13:45:30;7.30;;;4.67;;
3689;SDS011;1861;50.240;8.596;2023-04-08T13:47:58;4.63;;;3.70;;
3689;SDS011;1861;50.240;8.596;2023-04-08T13:50:26;7.00;;;4.40;;
3689;SDS011;1861;50.240;8.596;2023-04-08T13:52:54;8.87;;;6.13;;
3689;SDS011;1861;50.240;8.596;2023-04-08T13:55:23;6.53;;;4.17;;
3689;SDS011;1861;50.240;8.596;2023-04-08T13:57:52;7.23;;;4.00;;
3689;SDS011;1861;50.240;8.596;2023-04-08T14:00:20;7.93;;;3.47;;
3689;SDS011;1861;50.240;8.596;2023-04-08T14:02:48;6.80;;;4.17;;
3689;SDS011;1861;50.240;8.596;2023-04-08T14:05:17;4.93;;;3.93;;
3689;SDS011;1861;50.240;8.596;2023-04-08T14:07:45;6.43;;;4.40;;
3689;SDS011;1861;50.240;8.596;2023-04-08T14:10:13;7.73;;;3.70;;
3689;SDS011;1861;50.240;8.596;2023-04-08T14:12:44;5.30;;;4.10;;
3689;SDS011;1861;50.240;8.596;2023-04-08T14:15:12;7.13;;;3.83;;
3689;SDS011;1861;50.240;8.596;2023-04-08T14:17:41;3.90;;;3.50;;
3689;SDS011;1861;50.240;8.596;2023-04-08T14:20:09;6.77;;;4.20;;
3689;SDS011;1861;50.240;8.596;2023-04-08T14:22:37;8.00;;;5.03;;
3689;SDS011;1861;50.240;8.596;2023-04-08T14:25:05;9.10;;;5.40;;
3689;SDS011;1861;50.240;8.596;2023-04-08T14:27:34;7.70;;;5.37;;
3689;SDS011;1861;50.240;8.596;2023-04-08T14:30:21;7.73;;;4.37;;
3689;SDS011;1861;50.240;8.596;2023-04-08T14:32:49;8.20;;;5.23;;
3689;SDS011;1861;50.240;8.596;2023-04-08T14:35:18;8.10;;;5.07;;
3689;SDS011;1861;50.240;8.596;2023-04-08T14:37:46;7.33;;;5.30;;
3689;SDS011;1861;50.240;8.596;2023-04-08T14:40:14;8.27;;;4.70;;
3689;SDS011;1861;50.240;8.596;2023-04-08T14:42:42;8.10;;;5.67;;
3689;SDS011;1861;50.240;8.596;2023-04-08T14:45:11;8.87;;;5.13;;
3689;SDS011;1861;50.240;8.596;2023-04-08T14:47:40;10.27;;;4.93;;
3689;SDS011;1861;50.240;8.596;2023-04-08T14:50:09;9.60;;;6.00;;
3689;SDS011;1861;50.240;8.596;2023-04-08T14:52:37;9.53;;;5.53;;
3689;SDS011;1861;50.240;8.596;2023-04-08T14:55:06;6.73;;;4.77;;
3689;SDS011;1861;50.240;8.596;2023-04-08T14:57:34;8.33;;;5.40;;
3689;SDS011;1861;50.240;8.596;2023-04-08T15:00:02;9.93;;;5.73;;
3689;SDS011;1861;50.240;8.596;2023-04-08T15:02:31;8.10;;;5.00;;
3689;SDS011;1861;50.240;8.596;2023-04-08T15:05:00;8.57;;;5.67;;
3689;SDS011;1861;50.240;8.596;2023-04-08T15:07:28;9.60;;;5.17;;
3689;SDS011;1861;50.240;8.596;2023-04-08T15:09:57;8.07;;;4.63;;
3689;SDS011;1861;50.240;8.596;2023-04-08T15:12:25;8.17;;;4.70;;
3689;SDS011;1861;50.240;8.596;2023-04-08T15:14:54;8.37;;;5.30;;
3689;SDS011;1861;50.240;8.596;2023-04-08T15:17:22;9.03;;;4.43;;
3689;SDS011;1861;50.240;8.596;2023-04-08T15:19:51;15.17;;;4.90;;
3689;SDS011;1861;50.240;8.596;2023-04-08T15:22:20;7.37;;;4.67;;
3689;SDS011;1861;50.240;8.596;2023-04-08T15:24:48;7.13;;;4.60;;
3689;SDS011;1861;50.240;8.596;2023-04-08T15:27:16;9.53;;;5.33;;
3689;SDS011;1861;50.240;8.596;2023-04-08T15:29:45;9.43;;;5.13;;
3689;SDS011;1861;50.240;8.596;2023-04-08T15:32:13;8.23;;;5.03;;
3689;SDS011;1861;50.240;8.596;2023-04-08T15:34:41;7.63;;;5.10;;